ESMY weather

Smålandsstenar Smålanda Airport
Smålandsstenar, Jönköpings län, Sweden

Public forecast

Using degrees Celsius for public forecast. Weather courtesy of forecast.io.

Closest aviation weather report (METAR) to Smålandsstenar Smålanda Airport

Report is more than 6 hours old.

Closest report is Hagshult Air Base, 23.8 nm (44.1 km) ENE. Retrieved 2014/11/12 12:20 UTC (5 years ago):

ESMV 121220Z AUTO 09012KT 9999NDV OVC006/// 07/07 Q1014

Closest aviation forecast (TAF) to Smålandsstenar Smålanda Airport

Forecast is more than 12 hours old.

Closest forecast is Halmstad Airport, 35.1 nm (65.1 km) SW. Retrieved 2017/04/24 06:33 UTC (3 years ago):

TAF ESMT 240513Z 2406/2506 22018KT 9999 BKN018 TEMPO 2406/2413 22018G30KT 4000 RADZ BKN008 TEMPO 2413/2415 24020G30KT 4000 SHRA BKN014 SCT020CB